createdAt,value
2023-03-08T00:03:57.364Z,0.20
2023-03-08T00:12:00.216Z,0.45
2023-03-08T00:16:03.766Z,0.47
2023-03-08T00:20:07.336Z,0.55
2023-03-08T00:24:08.757Z,0.70
2023-03-08T00:28:10.177Z,0.77
2023-03-08T00:32:11.634Z,0.38
2023-03-08T00:36:18.172Z,0.85
2023-03-08T00:40:19.624Z,0.60
2023-03-08T00:44:21.052Z,0.55
2023-03-08T00:48:23.076Z,1.00
2023-03-08T00:52:26.958Z,0.60
2023-03-08T00:56:28.440Z,0.30
2023-03-08T01:00:31.665Z,0.50
2023-03-08T01:04:33.947Z,0.50
2023-03-08T01:08:36.254Z,1.17
2023-03-08T01:12:38.271Z,0.68
2023-03-08T01:16:40.967Z,1.25
2023-03-08T01:20:42.600Z,0.52
2023-03-08T01:24:45.796Z,0.55
2023-03-08T01:28:47.881Z,0.60
2023-03-08T01:32:49.457Z,0.30
2023-03-08T01:36:50.890Z,0.40
2023-03-08T01:40:57.544Z,0.60
2023-03-08T01:45:03.294Z,0.60
2023-03-08T01:49:27.070Z,0.50
2023-03-08T01:53:30.146Z,0.65
2023-03-08T01:57:34.926Z,0.65
2023-03-08T02:01:36.563Z,0.45
2023-03-08T02:05:41.951Z,0.70
2023-03-08T02:09:50.305Z,0.40
2023-03-08T02:13:54.388Z,0.50
2023-03-08T02:17:57.377Z,0.30
2023-03-08T02:21:58.883Z,0.70
2023-03-08T02:26:04.969Z,0.50
2023-03-08T02:30:07.032Z,0.68
2023-03-08T02:34:08.493Z,0.60
2023-03-08T02:38:12.527Z,0.35
2023-03-08T02:42:13.991Z,0.80
2023-03-08T02:46:17.796Z,0.30
2023-03-08T02:50:20.335Z,0.40
2023-03-08T02:54:21.937Z,0.45
2023-03-08T02:58:23.493Z,0.50
2023-03-08T03:02:25.170Z,0.50
2023-03-08T03:06:26.691Z,0.52
2023-03-08T03:10:30.990Z,0.55
2023-03-08T03:14:32.753Z,0.60
2023-03-08T03:18:35.828Z,0.50
2023-03-08T03:22:37.374Z,0.88
2023-03-08T03:26:41.505Z,0.52
2023-03-08T03:30:43.030Z,0.70
2023-03-08T03:34:47.127Z,0.65
2023-03-08T03:38:51.423Z,0.50
2023-03-08T03:42:53.764Z,0.50
2023-03-08T03:46:55.372Z,0.60
2023-03-08T03:51:09.969Z,0.77
2023-03-08T03:55:13.120Z,0.45
2023-03-08T03:59:15.171Z,0.45
2023-03-08T04:03:17.181Z,0.50
2023-03-08T04:07:19.342Z,0.40
2023-03-08T04:11:34.087Z,0.70
2023-03-08T04:15:36.380Z,0.85
2023-03-08T04:19:41.631Z,0.98
2023-03-08T04:23:45.414Z,0.70
2023-03-08T04:27:47.154Z,0.43
2023-03-08T04:31:49.223Z,0.98
2023-03-08T04:35:53.805Z,0.77
2023-03-08T04:39:58.569Z,0.70
2023-03-08T04:44:00.191Z,0.70
2023-03-08T04:48:14.906Z,0.68
2023-03-08T04:52:16.546Z,0.57
2023-03-08T04:56:19.120Z,1.25
2023-03-08T05:00:22.269Z,0.70
2023-03-08T05:04:23.823Z,1.02
2023-03-08T05:08:27.310Z,0.80
2023-03-08T05:12:28.984Z,1.13
2023-03-08T05:16:33.701Z,1.15
2023-03-08T05:20:38.426Z,1.25
2023-03-08T05:24:41.285Z,0.60
2023-03-08T05:28:45.780Z,0.68
2023-03-08T05:32:47.354Z,0.90
2023-03-08T05:36:49.318Z,1.60
2023-03-08T05:40:51.439Z,1.27
2023-03-08T05:44:53.250Z,1.40
2023-03-08T05:49:00.713Z,1.38
2023-03-08T05:53:05.185Z,1.08
2023-03-08T05:57:06.630Z,0.80
2023-03-08T06:01:20.490Z,1.00
2023-03-08T06:05:22.164Z,1.00
2023-03-08T06:09:28.023Z,0.90
2023-03-08T06:13:29.628Z,0.70
2023-03-08T06:17:31.511Z,0.80
2023-03-08T06:21:34.048Z,0.82
2023-03-08T06:25:37.984Z,1.13
2023-03-08T06:29:39.650Z,1.17
2023-03-08T06:33:41.953Z,0.82
2023-03-08T06:37:47.743Z,0.88
2023-03-08T06:41:50.363Z,0.75
2023-03-08T06:45:53.116Z,0.68
2023-03-08T06:49:56.270Z,1.52
2023-03-08T06:53:57.992Z,1.48
2023-03-08T06:58:02.567Z,2.00
2023-03-08T07:02:04.108Z,1.35
2023-03-08T07:06:08.510Z,1.90
2023-03-08T07:10:12.155Z,1.92
2023-03-08T07:14:13.587Z,1.52
2023-03-08T07:18:16.068Z,2.15
2023-03-08T07:22:17.611Z,1.67
2023-03-08T07:26:19.304Z,2.53
2023-03-08T07:30:21.093Z,2.50
2023-03-08T07:34:22.587Z,2.08
2023-03-08T07:38:24.035Z,2.97
2023-03-08T07:42:27.243Z,2.92
2023-03-08T07:46:34.536Z,2.37
2023-03-08T07:50:36.721Z,2.63
2023-03-08T07:54:38.719Z,2.60
2023-03-08T07:58:40.304Z,2.70
2023-03-08T08:02:42.111Z,2.15
2023-03-08T08:06:43.654Z,2.22
2023-03-08T08:10:45.309Z,1.42
2023-03-08T08:14:46.824Z,1.20
2023-03-08T08:18:48.614Z,1.35
2023-03-08T08:22:53.187Z,2.00
2023-03-08T08:26:54.738Z,1.48
2023-03-08T08:31:02.077Z,0.90
2023-03-08T08:35:04.730Z,0.85
2023-03-08T08:39:06.135Z,1.13
2023-03-08T08:43:07.660Z,1.00
2023-03-08T08:47:09.126Z,1.42
2023-03-08T08:51:12.964Z,0.95
2023-03-08T08:55:14.645Z,1.90
2023-03-08T08:59:16.379Z,1.95
2023-03-08T09:03:17.848Z,1.70
2023-03-08T09:07:19.248Z,1.65
2023-03-08T09:11:21.050Z,1.55
2023-03-08T09:15:23.140Z,1.05
2023-03-08T09:19:24.649Z,2.00
2023-03-08T09:23:26.175Z,2.30
2023-03-08T09:27:27.574Z,1.88
2023-03-08T09:31:29.063Z,1.85
2023-03-08T09:35:30.806Z,1.98
2023-03-08T09:39:32.447Z,2.00
2023-03-08T09:43:51.358Z,1.30
2023-03-08T09:48:10.933Z,2.53
2023-03-08T09:52:30.733Z,1.27
2023-03-08T09:56:38.285Z,1.27
2023-03-08T10:00:41.738Z,1.73
2023-03-08T10:04:46.925Z,1.23
2023-03-08T10:08:57.073Z,1.73
2023-03-08T10:13:26.073Z,1.35
2023-03-08T10:17:42.044Z,0.70
2023-03-08T10:21:44.744Z,1.23
2023-03-08T10:25:47.440Z,1.00
2023-03-08T10:29:51.003Z,2.20
2023-03-08T10:34:00.981Z,1.35
2023-03-08T10:38:03.670Z,1.48
2023-03-08T10:42:16.121Z,1.35
2023-03-08T10:46:20.602Z,1.40
2023-03-08T10:50:27.958Z,1.17
2023-03-08T10:54:29.643Z,1.25
2023-03-08T10:58:39.639Z,1.02
2023-03-08T11:02:41.122Z,0.82
2023-03-08T11:06:42.870Z,0.90
2023-03-08T11:10:44.581Z,1.42
2023-03-08T11:14:47.872Z,1.17
2023-03-08T11:19:06.472Z,2.38
2023-03-08T11:23:35.314Z,2.33
2023-03-08T11:28:18.322Z,1.55
2023-03-08T11:32:40.910Z,1.67
2023-03-08T11:36:58.161Z,2.05
2023-03-08T11:41:36.960Z,1.55
2023-03-08T11:45:53.108Z,2.35
2023-03-08T11:50:20.537Z,2.92
2023-03-08T11:54:41.645Z,1.80
2023-03-08T11:58:54.499Z,1.75
2023-03-08T12:03:01.319Z,1.77
2023-03-08T12:07:09.873Z,1.88
2023-03-08T12:11:24.343Z,2.25
2023-03-08T12:15:38.734Z,2.92
2023-03-08T12:19:46.234Z,2.38
2023-03-08T12:24:12.709Z,1.75
2023-03-08T12:28:25.667Z,1.98
2023-03-08T12:32:28.426Z,1.85
2023-03-08T12:36:46.812Z,1.67
2023-03-08T12:40:53.823Z,1.30
2023-03-08T12:45:28.097Z,2.95
2023-03-08T12:49:37.321Z,1.52
2023-03-08T12:53:50.845Z,1.52
2023-03-08T12:57:54.975Z,1.60
2023-03-08T13:01:56.444Z,1.40
2023-03-08T13:05:57.953Z,1.05
2023-03-08T13:10:07.729Z,1.17
2023-03-08T13:18:24.715Z,1.55
2023-03-08T13:22:37.709Z,0.90
2023-03-08T13:26:58.302Z,1.70
2023-03-08T13:31:13.026Z,1.63
2023-03-08T13:35:16.793Z,1.60
2023-03-08T13:39:23.581Z,1.00
2023-03-08T13:43:31.123Z,1.35
2023-03-08T13:47:34.827Z,1.20
2023-03-08T13:51:36.305Z,1.75
2023-03-08T13:55:47.197Z,1.35
2023-03-08T13:59:51.383Z,1.30
2023-03-08T14:03:55.366Z,1.88
2023-03-08T14:08:06.144Z,2.45
2023-03-08T14:12:08.028Z,1.92
2023-03-08T14:16:23.193Z,1.35
2023-03-08T14:20:25.414Z,2.15
2023-03-08T14:24:32.630Z,1.50
2023-03-08T14:28:40.461Z,1.80
2023-03-08T14:32:57.719Z,1.25
2023-03-08T14:37:13.963Z,1.55
2023-03-08T14:41:15.978Z,1.20
2023-03-08T14:45:23.638Z,1.17
2023-03-08T14:49:29.224Z,2.00
2023-03-08T14:53:39.223Z,1.98
2023-03-08T14:57:42.311Z,1.88
2023-03-08T15:01:43.898Z,1.48
2023-03-08T15:05:48.469Z,1.60
2023-03-08T15:09:51.457Z,1.30
2023-03-08T15:13:52.909Z,1.00
2023-03-08T15:17:54.499Z,1.83
2023-03-08T15:21:56.046Z,1.80
2023-03-08T15:25:59.235Z,1.40
2023-03-08T15:30:00.727Z,1.55
2023-03-08T15:34:02.177Z,2.40
2023-03-08T15:38:03.713Z,1.55
2023-03-08T15:42:05.466Z,1.05
2023-03-08T15:46:06.945Z,1.52
2023-03-08T15:50:17.353Z,1.35
2023-03-08T15:54:18.980Z,1.40
2023-03-08T15:58:20.517Z,1.27
2023-03-08T16:02:22.023Z,1.20
2023-03-08T16:06:24.559Z,1.63
2023-03-08T16:10:28.460Z,1.20
2023-03-08T16:14:29.958Z,1.27
2023-03-08T16:18:32.460Z,0.65
2023-03-08T16:22:34.314Z,1.08
2023-03-08T16:26:35.815Z,0.93
2023-03-08T16:30:39.171Z,1.13
2023-03-08T16:34:40.728Z,1.02
2023-03-08T16:38:42.591Z,1.50
2023-03-08T16:42:44.238Z,1.80
2023-03-08T16:46:45.801Z,2.00
2023-03-08T16:50:55.634Z,1.70
2023-03-08T16:58:59.913Z,1.67
2023-03-08T17:03:01.332Z,1.80
2023-03-08T17:07:06.453Z,1.67
2023-03-08T17:11:15.607Z,1.42
2023-03-08T17:15:17.070Z,2.00
2023-03-08T17:19:18.538Z,2.65
2023-03-08T17:23:20.207Z,2.80
2023-03-08T17:27:22.179Z,2.13
2023-03-08T17:31:24.263Z,3.03
2023-03-08T17:35:26.311Z,3.28
2023-03-08T17:39:27.765Z,2.65
2023-03-08T17:43:29.174Z,3.25
2023-03-08T17:47:30.573Z,2.08
2023-03-08T17:51:32.658Z,5.18
2023-03-08T17:55:34.063Z,2.95
2023-03-08T17:59:35.520Z,2.35
2023-03-08T18:03:38.072Z,2.63
2023-03-08T18:07:41.834Z,3.00
2023-03-08T18:11:43.789Z,2.00
2023-03-08T18:15:45.298Z,2.40
2023-03-08T18:19:47.375Z,2.40
2023-03-08T18:23:48.835Z,1.75
2023-03-08T18:27:50.349Z,1.30
2023-03-08T18:31:52.885Z,3.15
2023-03-08T18:35:57.818Z,2.50
2023-03-08T18:39:59.571Z,2.05
2023-03-08T18:44:01.158Z,2.25
2023-03-08T18:48:02.759Z,2.92
2023-03-08T18:52:05.111Z,2.88
2023-03-08T18:56:06.934Z,1.60
2023-03-08T19:00:10.679Z,2.67
2023-03-08T19:04:12.239Z,2.55
2023-03-08T19:08:13.834Z,3.22
2023-03-08T19:12:15.769Z,2.20
2023-03-08T19:16:36.122Z,2.45
2023-03-08T19:20:40.061Z,2.10
2023-03-08T19:24:41.492Z,3.72
2023-03-08T19:28:42.981Z,2.65
2023-03-08T19:32:44.486Z,2.55
2023-03-08T19:36:47.699Z,2.80
2023-03-08T19:40:49.207Z,2.30
2023-03-08T19:44:52.591Z,1.65
2023-03-08T19:48:54.699Z,2.40
2023-03-08T19:52:56.119Z,2.15
2023-03-08T19:56:58.444Z,2.13
2023-03-08T20:01:05.350Z,1.67
2023-03-08T20:05:07.037Z,1.45
2023-03-08T20:09:18.104Z,1.63
2023-03-08T20:13:19.740Z,3.28
2023-03-08T20:17:23.287Z,1.67
2023-03-08T20:21:28.457Z,2.75
2023-03-08T20:25:29.883Z,1.42
2023-03-08T20:29:31.415Z,1.92
2023-03-08T20:33:32.819Z,1.42
2023-03-08T20:37:34.474Z,1.35
2023-03-08T20:41:35.943Z,1.27
2023-03-08T20:45:39.298Z,1.48
2023-03-08T20:49:40.946Z,1.02
2023-03-08T20:53:42.445Z,1.20
2023-03-08T20:57:47.587Z,1.33
2023-03-08T21:01:49.794Z,1.08
2023-03-08T21:05:51.344Z,1.33
2023-03-08T21:09:53.036Z,1.15
2023-03-08T21:13:55.517Z,1.50
2023-03-08T21:17:56.936Z,1.80
2023-03-08T21:21:58.468Z,0.90
2023-03-08T21:26:00.942Z,1.60
2023-03-08T21:30:03.666Z,1.70
2023-03-08T21:34:06.484Z,1.27
2023-03-08T21:38:08.780Z,1.42
2023-03-08T21:42:10.195Z,1.83
2023-03-08T21:46:11.781Z,1.00
2023-03-08T21:50:13.248Z,2.33
2023-03-08T21:54:15.474Z,1.73
2023-03-08T21:58:18.913Z,1.80
2023-03-08T22:02:20.506Z,1.80
2023-03-08T22:06:23.420Z,1.75
2023-03-08T22:10:24.930Z,1.42
2023-03-08T22:14:27.074Z,1.20
2023-03-08T22:18:28.593Z,2.13
2023-03-08T22:22:30.042Z,1.75
2023-03-08T22:26:32.417Z,0.93
2023-03-08T22:30:33.882Z,1.60
2023-03-08T22:34:35.586Z,1.42
2023-03-08T22:38:38.175Z,1.52
2023-03-08T22:42:40.107Z,1.83
2023-03-08T22:46:42.053Z,1.85
2023-03-08T22:50:43.629Z,1.90
2023-03-08T22:54:45.263Z,1.73
2023-03-08T22:59:06.633Z,1.48
2023-03-08T23:03:08.360Z,1.35
2023-03-08T23:07:09.951Z,0.90
2023-03-08T23:11:12.236Z,1.67
2023-03-08T23:15:13.707Z,1.50
2023-03-08T23:19:19.490Z,1.65
2023-03-08T23:23:24.905Z,2.20
2023-03-08T23:27:26.471Z,2.63
2023-03-08T23:31:30.345Z,1.42
2023-03-08T23:35:31.868Z,1.95
2023-03-08T23:39:33.990Z,1.92
2023-03-08T23:43:36.614Z,1.42
2023-03-08T23:47:38.042Z,1.73
2023-03-08T23:51:39.515Z,1.73
2023-03-08T23:55:41.367Z,1.48
2023-03-08T23:59:43.216Z,1.80
